Decoded Metar for KPOE (FORT POLK in LA, USA) (IATA:POE) | Meteo·Mobile Aviation Weather
aviador You're here:

KPOE Decoded Metar

FORT POLK in LA, USA
Report Time2018-11-19 03:00:00
UTC Time2018-11-19 03:46:09
Flight Rules vfr VFR
Wind330° at 03 kt
W.Decomp.*RWY 34: 2.9 kt HW 0.6 kt LCW
W.Rank330° ranks 23
Current wind is below 330° avg. (6.8)
Visibility9999 m
Phenomena:N/A
Clouds:Overcast 045 Hf
Expected CloudBase > 400 ft AGL from Temp-Dew spread
Ceiling4,500 ft
Temp16°C (ISA +2)
Dew Point15°C (94% RH)
QNH1021 hPa
Density Alt486 ft
Elevation331 ft
Report Wrong Elevation
Raw Report
SPECI KPOE 190300Z AUTO 33003KT 8SM OVC045 16/15 A3016 RMK AO2 RAE00
SLP214=

Extra information for KPOE:More info

Metar Taf Metar & Taf Last 4 Metars F.Rules Stats Wind Profile Meteogram Temp Stats Airport Information Weather charts Add Link Nearby VenuesMetar ALERT Operation Metar Decoded Social comments

AIRNAV info for KPOE